createdAt,value
2022-08-27T00:01:48.469Z,122.27
2022-08-27T00:04:16.203Z,122.00
2022-08-27T00:06:44.024Z,122.33
2022-08-27T00:09:13.997Z,122.77
2022-08-27T00:11:41.698Z,121.90
2022-08-27T00:14:09.117Z,122.70
2022-08-27T00:16:36.631Z,122.57
2022-08-27T00:19:04.534Z,121.40
2022-08-27T00:21:33.002Z,122.50
2022-08-27T00:24:00.925Z,122.50
2022-08-27T00:26:28.903Z,122.27
2022-08-27T00:28:56.462Z,122.07
2022-08-27T00:31:27.398Z,122.13
2022-08-27T00:33:55.667Z,123.07
2022-08-27T00:36:24.092Z,121.47
2022-08-27T00:38:53.764Z,121.70
2022-08-27T00:41:22.756Z,122.87
2022-08-27T00:43:59.371Z,121.37
2022-08-27T00:46:52.991Z,122.37
2022-08-27T00:49:56.530Z,122.60
2022-08-27T00:52:47.266Z,121.77
2022-08-27T00:55:26.307Z,121.37
2022-08-27T00:58:18.467Z,121.90
2022-08-27T01:00:48.021Z,121.40
2022-08-27T01:03:15.990Z,121.70
2022-08-27T01:05:45.734Z,122.30
2022-08-27T01:08:19.126Z,121.83
2022-08-27T01:10:47.751Z,121.33
2022-08-27T01:13:22.286Z,121.93
2022-08-27T01:16:11.856Z,121.80
2022-08-27T01:18:39.446Z,122.20
2022-08-27T01:21:32.839Z,122.50
2022-08-27T01:24:38.499Z,122.27
2022-08-27T01:27:13.469Z,122.17
2022-08-27T01:29:42.443Z,121.57
2022-08-27T01:32:18.311Z,121.80
2022-08-27T01:34:46.305Z,122.00
2022-08-27T01:37:23.598Z,121.27
2022-08-27T01:39:54.380Z,121.67
2022-08-27T01:42:45.245Z,121.07
2022-08-27T01:45:29.507Z,122.00
2022-08-27T01:47:58.025Z,122.40
2022-08-27T01:50:35.913Z,121.67
2022-08-27T01:53:13.815Z,121.57
2022-08-27T01:55:46.343Z,121.40
2022-08-27T01:58:16.859Z,121.43
2022-08-27T02:00:55.998Z,121.17
2022-08-27T02:03:25.254Z,121.30
2022-08-27T02:05:53.544Z,121.57
2022-08-27T02:08:21.755Z,121.60
2022-08-27T02:10:50.766Z,121.77
2022-08-27T02:13:18.598Z,121.63
2022-08-27T02:15:45.949Z,121.63
2022-08-27T02:18:14.875Z,121.30
2022-08-27T02:20:45.410Z,121.17
2022-08-27T02:23:13.883Z,121.30
2022-08-27T02:25:41.672Z,121.67
2022-08-27T02:28:09.998Z,121.10
2022-08-27T02:30:37.968Z,122.07
2022-08-27T02:33:06.093Z,120.87
2022-08-27T02:35:38.916Z,121.40
2022-08-27T02:38:07.809Z,121.70
2022-08-27T02:40:35.959Z,121.67
2022-08-27T02:43:04.480Z,120.90
2022-08-27T02:45:32.117Z,121.80
2022-08-27T02:47:59.157Z,121.70
2022-08-27T02:50:27.707Z,121.87
2022-08-27T02:52:55.493Z,122.07
2022-08-27T02:55:23.047Z,121.80
2022-08-27T02:57:50.525Z,121.63
2022-08-27T03:00:22.557Z,121.50
2022-08-27T03:02:51.758Z,121.57
2022-08-27T03:05:20.273Z,121.10
2022-08-27T03:07:49.395Z,121.07
2022-08-27T03:10:20.297Z,122.20
2022-08-27T03:12:48.221Z,121.80
2022-08-27T03:15:18.945Z,121.87
2022-08-27T03:18:06.397Z,121.67
2022-08-27T03:20:37.333Z,121.90
2022-08-27T03:23:04.350Z,121.40
2022-08-27T03:25:32.994Z,122.10
2022-08-27T03:28:00.460Z,121.70
2022-08-27T03:30:28.013Z,121.87
2022-08-27T03:32:55.505Z,121.37
2022-08-27T03:35:23.519Z,121.53
2022-08-27T03:37:51.502Z,121.93
2022-08-27T03:40:19.626Z,121.80
2022-08-27T03:42:47.287Z,121.70
2022-08-27T03:45:16.055Z,121.50
2022-08-27T03:47:43.697Z,121.63
2022-08-27T03:50:11.602Z,121.27
2022-08-27T03:52:39.174Z,121.50
2022-08-27T03:55:08.769Z,121.80
2022-08-27T03:57:36.927Z,121.20
2022-08-27T04:00:10.343Z,121.57
2022-08-27T04:02:41.414Z,121.97
2022-08-27T04:05:11.883Z,121.40
2022-08-27T04:07:41.427Z,121.30
2022-08-27T04:10:12.047Z,121.07
2022-08-27T04:12:40.211Z,121.40
2022-08-27T04:15:09.734Z,122.10
2022-08-27T04:17:37.890Z,121.70
2022-08-27T04:20:31.837Z,121.70
2022-08-27T04:22:55.479Z,120.97
2022-08-27T04:25:22.954Z,121.40
2022-08-27T04:27:50.442Z,121.37
2022-08-27T04:30:19.222Z,120.97
2022-08-27T04:32:46.723Z,121.17
2022-08-27T04:35:14.301Z,121.60
2022-08-27T04:37:41.843Z,122.13
2022-08-27T04:40:10.592Z,121.50
2022-08-27T04:42:38.416Z,121.60
2022-08-27T04:45:06.555Z,121.30
2022-08-27T04:47:34.383Z,121.70
2022-08-27T04:50:01.874Z,121.67
2022-08-27T04:52:33.211Z,121.60
2022-08-27T04:55:00.711Z,121.50
2022-08-27T04:57:28.221Z,121.43
2022-08-27T04:59:56.840Z,121.47
2022-08-27T05:02:24.309Z,120.67
2022-08-27T05:04:51.859Z,121.13
2022-08-27T05:07:20.324Z,121.13
2022-08-27T05:09:47.744Z,121.27
2022-08-27T05:12:14.732Z,121.57
2022-08-27T05:14:42.220Z,121.17
2022-08-27T05:17:09.777Z,121.70
2022-08-27T05:19:37.180Z,121.10
2022-08-27T05:22:04.676Z,121.50
2022-08-27T05:24:32.469Z,121.47
2022-08-27T05:26:59.979Z,121.00
2022-08-27T05:29:27.083Z,121.33
2022-08-27T05:31:54.816Z,121.30
2022-08-27T05:34:26.257Z,120.50
2022-08-27T05:36:55.385Z,120.97
2022-08-27T05:39:23.196Z,120.80
2022-08-27T05:41:52.786Z,120.90
2022-08-27T05:47:07.960Z,120.93
2022-08-27T05:49:35.652Z,121.07
2022-08-27T05:52:03.308Z,120.90
2022-08-27T05:54:30.741Z,120.60
2022-08-27T05:56:58.288Z,121.67
2022-08-27T05:59:44.307Z,120.87
2022-08-27T06:02:11.819Z,120.93
2022-08-27T06:04:39.228Z,121.13
2022-08-27T06:07:09.706Z,120.90
2022-08-27T06:09:38.063Z,120.73
2022-08-27T06:12:06.801Z,120.90
2022-08-27T06:14:36.505Z,121.07
2022-08-27T06:17:04.596Z,121.37
2022-08-27T06:19:32.029Z,120.90
2022-08-27T06:22:09.800Z,120.67
2022-08-27T06:24:40.503Z,120.30
2022-08-27T06:27:12.752Z,120.57
2022-08-27T06:29:41.429Z,119.47
2022-08-27T06:32:09.536Z,120.10
2022-08-27T06:34:38.069Z,120.10
2022-08-27T06:37:06.106Z,120.17
2022-08-27T06:39:36.027Z,120.17
2022-08-27T06:42:06.298Z,119.67
2022-08-27T06:44:34.399Z,119.13
2022-08-27T06:47:03.650Z,119.00
2022-08-27T06:49:33.364Z,119.00
2022-08-27T06:52:01.017Z,119.07
2022-08-27T06:54:28.541Z,119.10
2022-08-27T06:57:00.205Z,119.10
2022-08-27T06:59:27.791Z,119.20
2022-08-27T07:01:55.343Z,118.70
2022-08-27T07:04:32.147Z,119.07
2022-08-27T07:07:04.370Z,118.40
2022-08-27T07:09:33.769Z,118.23
2022-08-27T07:12:02.273Z,118.10
2022-08-27T07:14:34.200Z,118.37
2022-08-27T07:17:04.815Z,118.20
2022-08-27T07:19:33.570Z,118.37
2022-08-27T07:22:00.666Z,118.30
2022-08-27T07:24:28.194Z,118.17
2022-08-27T07:26:55.687Z,117.70
2022-08-27T07:29:23.122Z,117.27
2022-08-27T07:31:50.167Z,117.27
2022-08-27T07:34:17.594Z,116.60
2022-08-27T07:36:44.627Z,117.07
2022-08-27T07:39:13.862Z,117.50
2022-08-27T07:41:59.743Z,116.87
2022-08-27T07:44:28.094Z,117.13
2022-08-27T07:47:02.284Z,116.37
2022-08-27T07:49:31.389Z,116.67
2022-08-27T07:51:58.913Z,118.37
2022-08-27T07:54:26.447Z,117.17
2022-08-27T07:56:56.013Z,117.40
2022-08-27T07:59:27.056Z,115.90
2022-08-27T08:03:43.411Z,119.47
2022-08-27T08:06:15.851Z,118.87
2022-08-27T08:08:45.011Z,119.10
2022-08-27T08:11:18.436Z,117.77
2022-08-27T08:13:50.171Z,118.97
2022-08-27T08:16:18.375Z,119.07
2022-08-27T08:18:45.943Z,118.77
2022-08-27T08:21:14.928Z,118.87
2022-08-27T08:23:45.418Z,118.47
2022-08-27T08:26:17.860Z,118.17
2022-08-27T08:28:48.448Z,119.90
2022-08-27T08:31:16.608Z,118.30
2022-08-27T08:33:44.183Z,118.17
2022-08-27T08:36:16.123Z,115.80
2022-08-27T08:38:45.394Z,116.90
2022-08-27T08:41:43.776Z,116.27
2022-08-27T08:44:44.340Z,114.00
2022-08-27T08:47:28.296Z,114.87
2022-08-27T08:50:19.721Z,115.70
2022-08-27T08:53:02.164Z,113.77
2022-08-27T08:56:07.906Z,115.57
2022-08-27T08:58:55.780Z,114.87
2022-08-27T09:01:24.583Z,115.07
2022-08-27T09:04:05.081Z,115.40
2022-08-27T09:07:04.681Z,114.37
2022-08-27T09:10:10.236Z,115.47
2022-08-27T09:12:40.864Z,115.73
2022-08-27T09:15:26.034Z,114.27
2022-08-27T09:18:04.824Z,114.67
2022-08-27T09:20:34.285Z,114.50
2022-08-27T09:23:15.028Z,114.53
2022-08-27T09:25:43.568Z,114.77
2022-08-27T09:28:40.620Z,114.67
2022-08-27T09:31:13.329Z,114.17
2022-08-27T09:33:55.913Z,114.57
2022-08-27T09:36:25.370Z,114.00
2022-08-27T09:39:04.182Z,114.90
2022-08-27T09:41:42.161Z,114.90
2022-08-27T09:44:13.907Z,115.27
2022-08-27T09:46:57.914Z,115.20
2022-08-27T09:49:26.845Z,115.10
2022-08-27T09:51:56.037Z,115.80
2022-08-27T09:54:46.512Z,114.87
2022-08-27T09:57:35.294Z,115.03
2022-08-27T10:00:08.969Z,115.87
2022-08-27T10:02:52.901Z,116.07
2022-08-27T10:05:37.290Z,116.17
2022-08-27T10:08:28.322Z,115.67
2022-08-27T10:11:27.954Z,116.47
2022-08-27T10:14:19.334Z,116.77
2022-08-27T10:17:28.833Z,116.47
2022-08-27T10:20:25.769Z,115.20
2022-08-27T10:23:41.754Z,114.97
2022-08-27T10:26:33.182Z,116.67
2022-08-27T10:29:45.618Z,116.13
2022-08-27T10:32:55.048Z,116.17
2022-08-27T10:35:27.097Z,116.30
2022-08-27T10:38:23.001Z,115.90
2022-08-27T10:41:17.402Z,114.20
2022-08-27T10:44:10.891Z,116.00
2022-08-27T10:47:10.670Z,115.00
2022-08-27T10:49:54.614Z,114.30
2022-08-27T10:52:29.286Z,114.33
2022-08-27T10:55:24.154Z,116.30
2022-08-27T10:58:19.152Z,117.10
2022-08-27T11:01:37.403Z,112.37
2022-08-27T11:04:26.702Z,111.23
2022-08-27T11:07:04.866Z,111.50
2022-08-27T11:09:51.637Z,112.57
2022-08-27T11:12:44.396Z,113.30
2022-08-27T11:15:31.046Z,113.80
2022-08-27T11:18:05.845Z,113.67
2022-08-27T11:20:56.007Z,113.67
2022-08-27T11:23:43.151Z,113.67
2022-08-27T11:26:12.338Z,113.70
2022-08-27T11:28:52.565Z,113.97
2022-08-27T11:31:36.188Z,114.67
2022-08-27T11:34:10.150Z,115.57
2022-08-27T11:36:56.006Z,115.80
2022-08-27T11:39:36.855Z,115.90
2022-08-27T11:42:41.964Z,114.63
2022-08-27T11:45:30.711Z,113.17
2022-08-27T11:48:01.667Z,112.03
2022-08-27T11:50:31.236Z,111.30
2022-08-27T11:53:02.140Z,110.57
2022-08-27T11:55:31.876Z,109.47
2022-08-27T11:58:30.366Z,108.10
2022-08-27T12:01:04.706Z,106.60
2022-08-27T12:03:35.416Z,106.20
2022-08-27T12:06:18.719Z,107.70
2022-08-27T12:08:46.827Z,108.47
2022-08-27T12:11:42.408Z,109.70
2022-08-27T12:14:39.503Z,109.10
2022-08-27T12:17:30.333Z,107.70
2022-08-27T12:20:32.681Z,106.47
2022-08-27T12:23:39.773Z,106.67
2022-08-27T12:26:25.501Z,107.50
2022-08-27T12:29:36.418Z,108.87
2022-08-27T12:32:37.072Z,110.60
2022-08-27T12:35:31.165Z,111.77
2022-08-27T12:38:14.172Z,110.37
2022-08-27T12:40:57.597Z,107.00
2022-08-27T12:43:29.061Z,106.27
2022-08-27T12:46:11.258Z,105.07
2022-08-27T12:48:44.617Z,105.00
2022-08-27T12:51:25.789Z,103.67
2022-08-27T12:54:30.164Z,103.50
2022-08-27T12:57:37.163Z,104.30
2022-08-27T13:00:26.608Z,106.67
2022-08-27T13:03:16.774Z,107.37
2022-08-27T13:05:50.293Z,109.57
2022-08-27T13:08:34.283Z,110.57
2022-08-27T13:11:21.789Z,110.47
2022-08-27T13:13:51.201Z,109.77
2022-08-27T13:16:20.902Z,108.80
2022-08-27T13:18:50.407Z,107.93
2022-08-27T13:21:28.269Z,107.70
2022-08-27T13:24:02.950Z,105.70
2022-08-27T13:26:37.277Z,106.13
2022-08-27T13:29:07.427Z,105.07
2022-08-27T13:31:36.044Z,105.90
2022-08-27T13:34:06.465Z,107.17
2022-08-27T13:36:37.889Z,107.60
2022-08-27T13:39:07.417Z,109.40
2022-08-27T13:41:37.930Z,110.10
2022-08-27T13:44:19.016Z,111.67
2022-08-27T13:47:03.882Z,113.77
2022-08-27T13:49:39.752Z,114.27
2022-08-27T13:52:29.439Z,113.10
2022-08-27T13:55:09.810Z,111.27
2022-08-27T13:57:50.367Z,111.07
2022-08-27T14:00:28.770Z,111.73
2022-08-27T14:02:58.587Z,113.30
2022-08-27T14:05:29.374Z,118.10
2022-08-27T14:08:23.271Z,118.20
2022-08-27T14:11:09.314Z,119.10
2022-08-27T14:13:49.123Z,119.07
2022-08-27T14:16:23.497Z,117.53
2022-08-27T14:19:05.371Z,116.43
2022-08-27T14:21:36.183Z,115.37
2022-08-27T14:24:04.375Z,117.00
2022-08-27T14:26:32.651Z,119.20
2022-08-27T14:29:00.547Z,119.90
2022-08-27T14:31:28.466Z,118.10
2022-08-27T14:33:56.528Z,118.00
2022-08-27T14:36:27.679Z,117.37
2022-08-27T14:38:55.480Z,116.23
2022-08-27T14:41:23.124Z,115.47
2022-08-27T14:43:50.863Z,115.57
2022-08-27T14:46:27.984Z,115.87
2022-08-27T14:48:58.471Z,115.80
2022-08-27T14:51:30.059Z,116.27
2022-08-27T14:53:58.836Z,116.07
2022-08-27T14:56:27.072Z,117.00
2022-08-27T14:58:54.672Z,116.90
2022-08-27T15:01:26.676Z,117.67
2022-08-27T15:03:55.756Z,117.83
2022-08-27T15:06:25.133Z,118.47
2022-08-27T15:08:54.699Z,118.90
2022-08-27T15:11:32.427Z,117.70
2022-08-27T15:14:01.691Z,117.77
2022-08-27T15:16:39.940Z,117.70
2022-08-27T15:19:10.969Z,116.80
2022-08-27T15:21:41.184Z,118.67
2022-08-27T15:24:26.197Z,119.87
2022-08-27T15:26:57.829Z,119.30
2022-08-27T15:29:26.201Z,119.87
2022-08-27T15:31:54.160Z,121.47
2022-08-27T15:34:21.848Z,125.00
2022-08-27T15:36:50.320Z,123.17
2022-08-27T15:39:17.892Z,121.47
2022-08-27T15:42:03.340Z,121.00
2022-08-27T15:44:33.149Z,119.87
2022-08-27T15:47:00.588Z,120.60
2022-08-27T15:49:28.136Z,121.20
2022-08-27T15:51:55.916Z,120.80
2022-08-27T15:54:27.654Z,120.40
2022-08-27T15:56:54.657Z,119.37
2022-08-27T15:59:22.115Z,119.20
2022-08-27T16:01:49.844Z,119.40
2022-08-27T16:04:17.729Z,120.50
2022-08-27T16:06:45.245Z,119.63
2022-08-27T16:09:12.661Z,120.60
2022-08-27T16:11:40.725Z,118.67
2022-08-27T16:14:10.589Z,120.47
2022-08-27T16:16:40.138Z,119.67
2022-08-27T16:19:08.493Z,120.13
2022-08-27T16:21:36.597Z,120.73
2022-08-27T16:24:08.965Z,119.97
2022-08-27T16:26:38.799Z,120.20
2022-08-27T16:29:07.305Z,120.57
2022-08-27T16:31:36.883Z,119.10
2022-08-27T16:34:14.865Z,120.57
2022-08-27T16:36:42.393Z,119.10
2022-08-27T16:39:10.110Z,120.27
2022-08-27T16:41:38.110Z,120.00
2022-08-27T16:44:06.741Z,120.27
2022-08-27T16:46:35.844Z,120.03
2022-08-27T16:49:23.514Z,119.87
2022-08-27T16:51:52.150Z,120.20
2022-08-27T16:54:19.647Z,120.37
2022-08-27T16:56:47.194Z,119.27
2022-08-27T16:59:15.711Z,120.67
2022-08-27T17:01:44.379Z,119.90
2022-08-27T17:04:19.337Z,120.57
2022-08-27T17:06:51.515Z,119.70
2022-08-27T17:09:19.215Z,119.97
2022-08-27T17:11:57.496Z,119.23
2022-08-27T17:14:26.655Z,120.07
2022-08-27T17:16:53.776Z,119.50
2022-08-27T17:19:24.246Z,118.97
2022-08-27T17:21:53.795Z,119.50
2022-08-27T17:24:21.256Z,120.27
2022-08-27T17:26:48.371Z,119.10
2022-08-27T17:29:15.895Z,119.87
2022-08-27T17:31:43.781Z,119.50
2022-08-27T17:34:17.765Z,120.47
2022-08-27T17:36:46.093Z,120.40
2022-08-27T17:39:14.523Z,119.80
2022-08-27T17:41:46.791Z,120.00
2022-08-27T17:44:25.576Z,120.60
2022-08-27T17:46:56.923Z,120.57
2022-08-27T17:49:25.569Z,120.57
2022-08-27T17:52:00.229Z,121.37
2022-08-27T17:54:41.171Z,121.20
2022-08-27T17:57:22.411Z,121.80
2022-08-27T17:59:50.820Z,121.50
2022-08-27T18:02:47.283Z,121.33
2022-08-27T18:05:18.149Z,121.10
2022-08-27T18:07:47.103Z,121.70
2022-08-27T18:10:22.359Z,120.77
2022-08-27T18:12:52.120Z,121.00
2022-08-27T18:15:32.168Z,120.57
2022-08-27T18:18:00.308Z,120.60
2022-08-27T18:20:31.552Z,120.07
2022-08-27T18:22:59.840Z,120.50
2022-08-27T18:25:35.266Z,120.00
2022-08-27T18:28:07.953Z,120.30
2022-08-27T18:30:38.570Z,120.73
2022-08-27T18:33:07.928Z,120.70
2022-08-27T18:35:36.424Z,120.60
2022-08-27T18:38:04.709Z,120.80
2022-08-27T18:40:39.810Z,120.30
2022-08-27T18:43:07.523Z,121.17
2022-08-27T18:45:37.477Z,120.40
2022-08-27T18:48:15.796Z,121.20
2022-08-27T18:50:57.041Z,120.87
2022-08-27T18:53:28.316Z,120.80
2022-08-27T18:55:56.360Z,121.80
2022-08-27T18:58:23.905Z,121.10
2022-08-27T19:00:57.107Z,121.53
2022-08-27T19:03:30.408Z,120.80
2022-08-27T19:05:58.224Z,121.10
2022-08-27T19:08:28.756Z,120.80
2022-08-27T19:10:56.328Z,121.00
2022-08-27T19:13:24.168Z,121.13
2022-08-27T19:16:09.324Z,120.90
2022-08-27T19:18:38.365Z,121.40
2022-08-27T19:21:07.297Z,120.83
2022-08-27T19:23:37.005Z,121.07
2022-08-27T19:26:04.725Z,120.70
2022-08-27T19:28:44.917Z,120.60
2022-08-27T19:31:14.359Z,121.00
2022-08-27T19:33:43.197Z,120.47
2022-08-27T19:36:16.146Z,121.07
2022-08-27T19:38:45.528Z,121.07
2022-08-27T19:41:14.036Z,120.60
2022-08-27T19:43:44.740Z,120.67
2022-08-27T19:46:17.408Z,120.70
2022-08-27T19:48:44.901Z,120.50
2022-08-27T19:51:12.921Z,120.87
2022-08-27T19:53:40.581Z,120.90
2022-08-27T19:56:13.605Z,120.40
2022-08-27T19:58:42.537Z,120.50
2022-08-27T20:01:11.454Z,120.20
2022-08-27T20:03:39.301Z,120.40
2022-08-27T20:06:06.741Z,120.80
2022-08-27T20:08:34.273Z,119.97
2022-08-27T20:11:01.755Z,120.57
2022-08-27T20:13:33.028Z,120.57
2022-08-27T20:16:01.426Z,120.60
2022-08-27T20:18:28.783Z,120.70
2022-08-27T20:20:56.875Z,120.00
2022-08-27T20:23:25.114Z,120.80
2022-08-27T20:25:57.834Z,120.63
2022-08-27T20:28:43.582Z,119.97
2022-08-27T20:31:11.417Z,120.80
2022-08-27T20:33:39.098Z,120.53
2022-08-27T20:36:08.463Z,120.20
2022-08-27T20:38:35.728Z,120.60
2022-08-27T20:41:03.418Z,120.20
2022-08-27T20:43:31.034Z,121.00
2022-08-27T20:45:59.455Z,120.77
2022-08-27T20:48:27.034Z,120.30
2022-08-27T20:50:56.177Z,120.73
2022-08-27T20:53:23.750Z,120.30
2022-08-27T20:55:51.316Z,120.60
2022-08-27T20:58:37.131Z,120.80
2022-08-27T21:01:04.863Z,120.87
2022-08-27T21:03:32.451Z,121.17
2022-08-27T21:05:59.874Z,121.00
2022-08-27T21:08:27.550Z,120.77
2022-08-27T21:10:57.258Z,121.00
2022-08-27T21:13:27.319Z,120.53
2022-08-27T21:15:56.432Z,120.90
2022-08-27T21:18:29.722Z,120.70
2022-08-27T21:21:02.275Z,120.40
2022-08-27T21:23:32.523Z,120.70
2022-08-27T21:26:19.512Z,120.67
2022-08-27T21:28:47.018Z,120.90
2022-08-27T21:31:14.533Z,120.77
2022-08-27T21:33:41.986Z,120.43
2022-08-27T21:36:12.215Z,121.20
2022-08-27T21:38:40.431Z,121.17
2022-08-27T21:41:08.500Z,120.27
2022-08-27T21:43:36.482Z,120.70
2022-08-27T21:46:04.360Z,120.90
2022-08-27T21:48:31.869Z,120.60
2022-08-27T21:50:59.483Z,120.90
2022-08-27T21:53:27.088Z,120.70
2022-08-27T21:55:54.947Z,120.90
2022-08-27T21:58:26.384Z,120.80
2022-08-27T22:00:54.558Z,120.90
2022-08-27T22:03:24.059Z,120.53
2022-08-27T22:05:52.361Z,120.60
2022-08-27T22:08:22.359Z,120.77
2022-08-27T22:10:54.471Z,120.37
2022-08-27T22:13:22.583Z,120.53
2022-08-27T22:15:50.166Z,120.80
2022-08-27T22:18:18.771Z,120.63
2022-08-27T22:20:50.167Z,120.97
2022-08-27T22:23:17.810Z,121.10
2022-08-27T22:25:45.896Z,120.70
2022-08-27T22:28:16.204Z,121.27
2022-08-27T22:30:45.008Z,120.77
2022-08-27T22:33:13.912Z,120.77
2022-08-27T22:35:41.540Z,119.97
2022-08-27T22:38:09.290Z,120.10
2022-08-27T22:40:37.298Z,121.07
2022-08-27T22:43:05.709Z,121.00
2022-08-27T22:45:34.404Z,120.60
2022-08-27T22:48:02.061Z,121.30
2022-08-27T22:50:29.592Z,120.50
2022-08-27T22:52:56.988Z,120.47
2022-08-27T22:55:25.160Z,120.90
2022-08-27T22:57:55.253Z,120.83
2022-08-27T23:00:31.505Z,120.63
2022-08-27T23:02:59.647Z,120.73
2022-08-27T23:05:28.454Z,120.70
2022-08-27T23:08:11.322Z,120.63
2022-08-27T23:10:39.705Z,121.17
2022-08-27T23:13:08.589Z,121.10
2022-08-27T23:15:36.584Z,120.97
2022-08-27T23:18:04.368Z,120.70
2022-08-27T23:20:32.165Z,120.63
2022-08-27T23:22:59.633Z,120.60
2022-08-27T23:25:46.530Z,120.93
2022-08-27T23:28:15.510Z,121.50
2022-08-27T23:30:44.759Z,121.33
2022-08-27T23:33:13.581Z,121.07
2022-08-27T23:35:44.379Z,120.73
2022-08-27T23:38:12.315Z,120.40
2022-08-27T23:40:40.755Z,121.07
2022-08-27T23:43:08.346Z,120.97
2022-08-27T23:45:40.168Z,120.83
2022-08-27T23:48:08.409Z,120.87
2022-08-27T23:50:36.304Z,121.00
2022-08-27T23:53:05.869Z,120.70
2022-08-27T23:55:33.739Z,120.57
2022-08-27T23:58:02.619Z,120.67
